Time;durP1;ratioP1;P1;durP2;ratioP2;P2;SDS_P1;SDS_P2;PMS_P1;PMS_P2;Temp;Humidity;BMP_temperature;BMP_pressure;BME280_temperature;BME280_humidity;BME280_pressure;Samples;Min_cycle;Max_cycle;Signal;HPM_P1;HPM_P2
2022/12/24 00:02:12;;;;;;;2.37;1.10;;;13.40;99.90;;;;;;5031476;28;20386;-73
2022/12/24 00:04:37;;;;;;;3.20;1.20;;;13.40;99.90;;;;;;5032015;28;20402;-73
2022/12/24 00:07:03;;;;;;;2.25;1.20;;;13.40;99.90;;;;;;5031347;28;20876;-73
2022/12/24 00:09:28;;;;;;;3.88;1.10;;;13.40;99.90;;;;;;5032488;28;20392;-73
2022/12/24 00:11:54;;;;;;;3.17;1.10;;;13.30;99.90;;;;;;5032732;28;20893;-73
2022/12/24 00:14:20;;;;;;;2.30;0.90;;;13.30;99.90;;;;;;5032017;28;20796;-73
2022/12/24 00:16:45;;;;;;;3.73;1.27;;;13.40;99.90;;;;;;5032515;28;20497;-73
2022/12/24 00:19:11;;;;;;;5.00;1.20;;;13.30;99.90;;;;;;5031166;28;20754;-72
2022/12/24 00:21:37;;;;;;;4.40;1.10;;;13.20;99.90;;;;;;5032526;28;20841;-72
2022/12/24 00:24:04;;;;;;;1.77;1.17;;;13.20;99.90;;;;;;5031665;28;20499;-73
2022/12/24 00:26:33;;;;;;;2.65;1.10;;;13.30;99.90;;;;;;5019162;28;20472;-73
2022/12/24 00:28:59;;;;;;;2.42;0.93;;;13.20;99.90;;;;;;5012532;28;20766;-73
2022/12/24 00:31:25;;;;;;;4.97;1.40;;;13.20;99.90;;;;;;5012718;28;20377;-73
2022/12/24 00:33:50;;;;;;;2.08;1.00;;;13.20;99.90;;;;;;5011932;28;20479;-72
2022/12/24 00:36:17;;;;;;;3.45;1.00;;;13.20;99.90;;;;;;5012472;28;20385;-73
2022/12/24 00:38:43;;;;;;;2.30;0.90;;;13.10;99.90;;;;;;5012194;28;20989;-73
2022/12/24 00:41:23;;;;;;;3.65;1.40;;;13.10;99.90;;;;;;5011491;28;20499;-72
2022/12/24 00:43:51;;;;;;;3.80;1.30;;;13.10;99.90;;;;;;5008345;28;20409;-73
2022/12/24 00:46:16;;;;;;;2.30;1.00;;;13.10;99.90;;;;;;5011268;28;20415;-73
2022/12/24 00:48:42;;;;;;;2.85;1.00;;;13.10;99.90;;;;;;5010832;28;20385;-73
2022/12/24 00:51:07;;;;;;;3.27;1.40;;;13.00;99.90;;;;;;5011551;28;20388;-74
2022/12/24 00:53:33;;;;;;;2.43;1.40;;;13.10;99.90;;;;;;5009147;28;20380;-73
2022/12/24 00:55:58;;;;;;;2.22;1.05;;;13.10;99.90;;;;;;5011819;28;20388;-73
2022/12/24 00:58:24;;;;;;;3.75;1.10;;;12.90;99.90;;;;;;5012378;28;20932;-73
2022/12/24 01:00:49;;;;;;;3.40;1.20;;;12.90;99.90;;;;;;5012360;28;20396;-73
2022/12/24 01:03:15;;;;;;;3.03;1.30;;;13.00;99.90;;;;;;5011612;28;20411;-73
2022/12/24 01:05:40;;;;;;;3.13;1.00;;;13.00;99.90;;;;;;5012786;28;20385;-73
2022/12/24 01:08:06;;;;;;;2.78;1.30;;;13.00;99.90;;;;;;5012313;28;20460;-73
2022/12/24 01:10:31;;;;;;;2.30;1.40;;;12.90;99.90;;;;;;5031558;28;21097;-73
2022/12/24 01:13:01;;;;;;;3.80;1.13;;;12.90;99.90;;;;;;5029927;28;20912;-74
2022/12/24 01:15:27;;;;;;;3.08;1.40;;;12.90;99.90;;;;;;5031424;28;20392;-73
2022/12/24 01:17:52;;;;;;;2.38;1.20;;;12.90;99.90;;;;;;5031391;28;20383;-72
2022/12/24 01:20:18;;;;;;;3.15;1.30;;;12.90;99.90;;;;;;5031280;28;20383;-73
2022/12/24 01:22:44;;;;;;;2.20;1.20;;;12.90;99.90;;;;;;5030634;28;20401;-73
2022/12/24 01:25:09;;;;;;;2.55;1.10;;;12.90;99.90;;;;;;5031263;28;20405;-72
2022/12/24 01:27:35;;;;;;;3.40;1.20;;;13.00;99.90;;;;;;5031060;28;20387;-72
2022/12/24 01:30:01;;;;;;;3.13;1.20;;;12.90;99.90;;;;;;5031231;28;20417;-72
2022/12/24 01:32:26;;;;;;;3.60;1.10;;;12.90;99.90;;;;;;5030848;28;20383;-71
2022/12/24 01:34:52;;;;;;;2.22;1.20;;;12.90;99.90;;;;;;5030753;28;20387;-72
2022/12/24 01:37:17;;;;;;;3.03;1.47;;;13.00;99.90;;;;;;5030986;28;20858;-73
2022/12/24 01:39:43;;;;;;;3.23;1.00;;;12.90;99.90;;;;;;5029496;28;20414;-72
2022/12/24 01:45:41;;;;;;;2.92;1.20;;;12.80;99.90;;;;;;5030834;28;20425;-72
2022/12/24 01:48:20;;;;;;;2.22;1.63;;;12.90;99.90;;;;;;5021171;28;20395;-72
2022/12/24 01:50:46;;;;;;;2.90;1.10;;;12.90;99.90;;;;;;5030595;28;20391;-72
2022/12/24 01:53:14;;;;;;;1.63;0.85;;;13.00;99.90;;;;;;5030006;28;20395;-73
2022/12/24 01:55:39;;;;;;;4.25;1.00;;;13.00;99.90;;;;;;5030835;28;20418;-72
2022/12/24 01:58:07;;;;;;;3.77;1.00;;;13.00;99.90;;;;;;5030744;28;21138;-73
2022/12/24 02:00:33;;;;;;;2.43;0.93;;;13.00;99.90;;;;;;5030539;28;20415;-72
2022/12/24 02:02:59;;;;;;;3.37;1.40;;;13.00;99.90;;;;;;5029648;28;20423;-73
2022/12/24 02:05:37;;;;;;;3.20;1.23;;;12.90;99.90;;;;;;5030507;28;20931;-72
2022/12/24 02:08:04;;;;;;;3.72;1.20;;;12.90;99.90;;;;;;5030353;28;20949;-73
2022/12/24 02:10:29;;;;;;;4.47;1.60;;;12.80;99.90;;;;;;5010852;28;20393;-74
2022/12/24 02:12:57;;;;;;;3.22;1.20;;;12.80;99.90;;;;;;5010033;28;20388;-74
2022/12/24 02:15:22;;;;;;;3.20;1.30;;;12.80;99.90;;;;;;5011156;28;20875;-73
2022/12/24 02:18:13;;;;;;;3.53;1.23;;;12.80;99.90;;;;;;5009376;28;20389;-73
2022/12/24 02:20:38;;;;;;;3.35;1.05;;;12.80;99.90;;;;;;5010884;28;20950;-73
2022/12/24 02:23:38;;;;;;;5.15;1.30;;;12.80;99.90;;;;;;5009851;28;20475;-73
2022/12/24 02:26:53;;;;;;;4.93;1.20;;;12.80;99.90;;;;;;5019849;28;20433;-73
2022/12/24 02:30:00;;;;;;;4.80;1.70;;;12.70;99.90;;;;;;5030201;28;20383;-74
2022/12/24 02:32:32;;;;;;;5.10;1.58;;;12.60;99.90;;;;;;5030005;28;20550;-73
2022/12/24 02:35:20;;;;;;;3.83;1.42;;;12.70;99.90;;;;;;5030265;28;20870;-73
2022/12/24 02:37:51;;;;;;;2.97;1.30;;;12.70;99.90;;;;;;5030055;28;20391;-74
2022/12/24 02:40:24;;;;;;;6.13;1.55;;;12.70;99.90;;;;;;5030070;28;20468;-73
2022/12/24 02:42:55;;;;;;;4.32;1.50;;;12.60;99.90;;;;;;5029177;28;20418;-73
2022/12/24 02:45:27;;;;;;;4.65;1.73;;;12.70;99.90;;;;;;5028835;28;20444;-73
2022/12/24 02:47:54;;;;;;;5.70;2.13;;;12.60;99.90;;;;;;5030119;28;20390;-73
2022/12/24 02:50:20;;;;;;;5.63;1.60;;;12.60;99.90;;;;;;5030186;28;20862;-74
2022/12/24 02:52:47;;;;;;;4.57;1.50;;;12.60;99.90;;;;;;5029435;28;20398;-73
2022/12/24 02:55:32;;;;;;;4.97;1.88;;;12.50;99.90;;;;;;5030008;28;20394;-74
2022/12/24 02:58:18;;;;;;;6.10;1.85;;;12.50;99.90;;;;;;5029913;28;20391;-73
2022/12/24 03:01:15;;;;;;;3.75;1.23;;;12.50;99.90;;;;;;5030075;28;20394;-73
2022/12/24 03:03:59;;;;;;;6.20;1.88;;;12.50;99.90;;;;;;5027694;28;20407;-74
2022/12/24 03:06:32;;;;;;;6.18;1.70;;;12.50;99.90;;;;;;5029946;28;20915;-72
2022/12/24 03:09:04;;;;;;;4.55;1.70;;;12.50;99.90;;;;;;5021903;28;20471;-72
2022/12/24 03:11:30;;;;;;;4.60;1.90;;;12.50;99.90;;;;;;5010233;28;20377;-73
2022/12/24 03:13:57;;;;;;;6.40;2.10;;;12.40;99.90;;;;;;5009233;28;20392;-72
2022/12/24 03:16:26;;;;;;;7.90;2.33;;;12.40;99.90;;;;;;5011060;28;20805;-73
2022/12/24 03:18:54;;;;;;;5.07;1.60;;;12.30;99.90;;;;;;5013706;28;20389;-74
2022/12/24 03:21:26;;;;;;;6.00;1.55;;;12.30;99.90;;;;;;5013934;28;20948;-73
2022/12/24 03:23:51;;;;;;;5.10;1.80;;;12.30;99.90;;;;;;5013025;28;20405;-74
2022/12/24 03:26:18;;;;;;;5.80;1.77;;;12.20;99.90;;;;;;5024807;28;20411;-73
2022/12/24 03:28:45;;;;;;;4.22;1.42;;;12.30;99.90;;;;;;5032001;28;20383;-73
2022/12/24 03:31:11;;;;;;;4.05;1.30;;;12.30;99.90;;;;;;5033449;28;20379;-74
2022/12/24 03:33:37;;;;;;;4.78;1.95;;;12.20;99.90;;;;;;5031309;28;20391;-74
2022/12/24 03:36:04;;;;;;;5.10;1.52;;;12.20;99.90;;;;;;5032001;28;20399;-73
2022/12/24 03:38:30;;;;;;;4.47;1.63;;;12.30;99.90;;;;;;5032880;28;20506;-72
2022/12/24 03:40:56;;;;;;;4.28;1.67;;;12.30;99.90;;;;;;5033159;28;20478;-73
2022/12/24 03:43:21;;;;;;;3.45;1.70;;;12.30;99.90;;;;;;5032275;28;20486;-73
2022/12/24 03:45:47;;;;;;;4.50;1.63;;;12.30;99.90;;;;;;5033153;28;20472;-72
2022/12/24 03:48:13;;;;;;;4.80;1.50;;;12.20;99.90;;;;;;5033073;28;20390;-72
2022/12/24 03:50:38;;;;;;;5.35;1.75;;;12.20;99.90;;;;;;5032976;28;20965;-72
2022/12/24 03:53:04;;;;;;;5.80;2.03;;;12.20;99.90;;;;;;5032220;28;20379;-72
2022/12/24 03:55:29;;;;;;;3.67;1.80;;;12.10;99.90;;;;;;5033363;28;20423;-73
2022/12/24 03:57:55;;;;;;;5.10;1.50;;;12.10;99.90;;;;;;5032862;28;20785;-72
2022/12/24 04:00:20;;;;;;;5.80;1.50;;;12.10;99.90;;;;;;5032808;28;20398;-73
2022/12/24 04:02:46;;;;;;;4.90;1.80;;;12.10;99.90;;;;;;5032174;28;20761;-73
2022/12/24 04:05:17;;;;;;;6.15;1.80;;;12.20;99.90;;;;;;5032668;28;20490;-72
2022/12/24 04:07:42;;;;;;;5.90;1.52;;;12.10;99.90;;;;;;5032661;28;20426;-72
2022/12/24 04:10:09;;;;;;;6.00;1.70;;;12.20;99.90;;;;;;5015247;28;20982;-72
2022/12/24 04:12:34;;;;;;;4.75;1.85;;;12.20;99.90;;;;;;5012103;28;20424;-72
2022/12/24 04:15:00;;;;;;;4.40;1.70;;;12.20;99.90;;;;;;5012832;28;20412;-72
2022/12/24 04:17:26;;;;;;;6.00;1.30;;;12.10;99.90;;;;;;5012910;28;20396;-72
2022/12/24 04:19:51;;;;;;;5.05;1.70;;;12.20;99.90;;;;;;5012626;28;20471;-72
2022/12/24 04:22:17;;;;;;;7.75;2.10;;;12.20;99.90;;;;;;5011326;28;20393;-72
2022/12/24 04:24:43;;;;;;;6.13;1.90;;;12.20;99.90;;;;;;5011808;28;20400;-72
2022/12/24 04:27:08;;;;;;;4.13;1.90;;;12.20;99.90;;;;;;5030614;28;20395;-73
2022/12/24 04:29:34;;;;;;;8.00;1.63;;;12.20;99.90;;;;;;5032198;28;20402;-73
2022/12/24 04:31:59;;;;;;;8.03;2.30;;;12.20;99.90;;;;;;5032566;28;20746;-71
2022/12/24 04:34:25;;;;;;;8.97;1.90;;;12.20;99.90;;;;;;5031746;28;20869;-72
2022/12/24 04:36:51;;;;;;;3.42;1.40;;;12.30;99.90;;;;;;5032491;28;20470;-73
2022/12/24 04:39:16;;;;;;;6.30;1.67;;;12.20;99.90;;;;;;5032165;28;20399;-73
2022/12/24 04:41:42;;;;;;;5.90;1.90;;;12.20;99.90;;;;;;5032307;28;20395;-72
2022/12/24 04:44:08;;;;;;;7.60;1.80;;;12.20;99.90;;;;;;5031661;28;20434;-72
2022/12/24 04:46:34;;;;;;;9.40;2.40;;;12.20;99.90;;;;;;5032324;28;20402;-72
2022/12/24 04:49:00;;;;;;;8.05;2.60;;;12.20;99.90;;;;;;5032099;28;20493;-73
2022/12/24 04:51:27;;;;;;;3.50;2.03;;;12.20;99.90;;;;;;5032211;28;20445;-72
2022/12/24 04:53:53;;;;;;;8.52;2.10;;;12.20;99.90;;;;;;5029933;28;20885;-73
2022/12/24 04:56:28;;;;;;;7.00;1.80;;;12.20;99.90;;;;;;5030791;28;20448;-73
2022/12/24 04:58:54;;;;;;;9.23;2.58;;;12.20;99.90;;;;;;5031935;28;20409;-73
2022/12/24 05:01:25;;;;;;;7.20;2.30;;;12.20;99.90;;;;;;5032104;28;20399;-73
2022/12/24 05:03:52;;;;;;;8.13;2.38;;;12.10;99.90;;;;;;5031036;28;20400;-73
2022/12/24 05:06:21;;;;;;;8.02;1.90;;;12.10;99.90;;;;;;5030602;28;20936;-73
2022/12/24 05:08:47;;;;;;;11.77;2.75;;;12.10;99.90;;;;;;5030331;28;20387;-72
2022/12/24 05:11:14;;;;;;;7.03;2.00;;;12.10;99.90;;;;;;5031633;28;20901;-73
2022/12/24 05:13:40;;;;;;;7.32;2.10;;;12.10;99.90;;;;;;5031118;28;20944;-73
2022/12/24 05:16:06;;;;;;;7.30;2.40;;;12.10;99.90;;;;;;5030403;28;20758;-73
2022/12/24 05:18:32;;;;;;;7.28;2.10;;;12.10;99.90;;;;;;5031681;28;20396;-73
2022/12/24 05:20:57;;;;;;;5.83;2.20;;;12.00;99.90;;;;;;5030295;28;20474;-73
2022/12/24 05:26:22;;;;;;;5.25;2.22;;;12.10;99.90;;;;;;5031306;28;20395;-73
2022/12/24 05:28:49;;;;;;;9.35;2.53;;;12.10;99.90;;;;;;5031422;28;20383;-74
2022/12/24 05:31:15;;;;;;;10.90;2.88;;;12.00;99.90;;;;;;5031343;28;20383;-73
2022/12/24 05:33:40;;;;;;;6.40;2.10;;;12.00;99.90;;;;;;5030457;28;20478;-73
2022/12/24 05:36:06;;;;;;;6.40;2.10;;;12.00;99.90;;;;;;5031845;28;20375;-73
2022/12/24 05:38:32;;;;;;;9.07;2.08;;;12.00;99.90;;;;;;5030822;28;20738;-74
2022/12/24 05:40:57;;;;;;;5.45;2.10;;;12.00;99.90;;;;;;5030008;28;20390;-73
2022/12/24 05:43:23;;;;;;;7.23;2.70;;;12.00;99.90;;;;;;5030395;28;20412;-73
2022/12/24 05:45:48;;;;;;;12.50;2.50;;;12.00;99.90;;;;;;5031071;28;20395;-74
2022/12/24 05:48:14;;;;;;;7.13;2.20;;;12.00;99.90;;;;;;5031133;28;20380;-73
2022/12/24 05:50:40;;;;;;;8.23;2.45;;;12.00;99.90;;;;;;5030974;28;20805;-74
2022/12/24 05:53:06;;;;;;;4.25;1.60;;;12.00;99.90;;;;;;5030289;28;20407;-73
2022/12/24 05:55:33;;;;;;;8.32;2.40;;;12.00;99.90;;;;;;5030913;28;20870;-76
2022/12/24 05:57:59;;;;;;;8.60;2.42;;;12.00;99.90;;;;;;5030977;28;20384;-73
2022/12/24 06:00:24;;;;;;;9.32;3.20;;;12.10;99.90;;;;;;5030903;28;20900;-74
2022/12/24 06:02:50;;;;;;;6.67;2.13;;;12.00;99.90;;;;;;5030172;28;20418;-74
2022/12/24 06:05:16;;;;;;;6.40;2.20;;;11.90;99.90;;;;;;5029573;28;20399;-73
2022/12/24 06:07:41;;;;;;;5.88;1.90;;;12.00;99.90;;;;;;5029750;28;21034;-74
2022/12/24 06:10:07;;;;;;;7.55;2.00;;;11.90;99.90;;;;;;5013590;28;20523;-73
2022/12/24 06:12:33;;;;;;;10.25;2.53;;;11.90;99.90;;;;;;5010378;28;20420;-74
2022/12/24 06:14:58;;;;;;;4.20;1.77;;;11.90;99.90;;;;;;5010883;28;20850;-73
2022/12/24 06:17:24;;;;;;;5.68;2.20;;;11.90;99.90;;;;;;5009695;28;20434;-73
2022/12/24 06:19:50;;;;;;;8.90;1.80;;;11.90;99.90;;;;;;5010767;28;20512;-73
2022/12/24 06:22:15;;;;;;;9.30;2.40;;;11.90;99.90;;;;;;5026051;28;20399;-73
2022/12/24 06:24:41;;;;;;;4.50;1.90;;;11.90;99.90;;;;;;5010034;28;20404;-73
2022/12/24 06:27:06;;;;;;;6.83;1.93;;;11.90;99.90;;;;;;5028741;28;20453;-73
2022/12/24 06:29:32;;;;;;;9.32;3.05;;;11.90;99.90;;;;;;5029075;28;20421;-73
2022/12/24 06:31:57;;;;;;;8.43;1.80;;;11.90;99.90;;;;;;5030384;28;20422;-74
2022/12/24 06:34:23;;;;;;;5.73;2.20;;;11.90;99.90;;;;;;5029792;28;20383;-74
2022/12/24 06:36:48;;;;;;;8.70;2.30;;;11.90;99.90;;;;;;5023364;28;20489;-72
2022/12/24 06:39:14;;;;;;;7.15;2.20;;;11.90;99.90;;;;;;5011517;28;20468;-74
2022/12/24 06:41:39;;;;;;;7.83;1.93;;;11.90;99.90;;;;;;5025309;28;20448;-74
2022/12/24 06:44:05;;;;;;;6.50;1.70;;;11.80;99.90;;;;;;5017565;28;20453;-74
2022/12/24 06:46:30;;;;;;;5.97;2.40;;;11.90;99.90;;;;;;5029906;28;20391;-74
2022/12/24 06:48:56;;;;;;;9.15;2.40;;;11.90;99.90;;;;;;5013584;28;21056;-75
2022/12/24 06:51:22;;;;;;;7.17;2.17;;;11.90;99.90;;;;;;5028340;28;20421;-74
2022/12/24 06:53:49;;;;;;;6.57;1.90;;;11.90;99.90;;;;;;5019193;28;20389;-75
2022/12/24 06:56:15;;;;;;;6.75;2.10;;;11.90;99.90;;;;;;5024467;28;20389;-74
2022/12/24 06:58:41;;;;;;;4.35;1.70;;;11.90;99.90;;;;;;5025565;28;20475;-74
2022/12/24 07:01:08;;;;;;;6.83;2.50;;;11.90;99.90;;;;;;5017316;28;20451;-74
2022/12/24 07:03:34;;;;;;;6.57;2.13;;;11.80;99.90;;;;;;5029141;28;20450;-74
2022/12/24 07:06:00;;;;;;;5.72;2.00;;;11.80;99.90;;;;;;5014044;28;20400;-74
2022/12/24 07:08:26;;;;;;;6.32;2.00;;;11.80;99.90;;;;;;5021127;28;20391;-74
2022/12/24 07:10:52;;;;;;;7.13;1.97;;;11.90;99.90;;;;;;5028354;28;20877;-74
2022/12/24 07:13:18;;;;;;;9.05;2.38;;;11.90;99.90;;;;;;5016355;28;20392;-74
2022/12/24 07:15:44;;;;;;;6.47;2.20;;;11.90;99.90;;;;;;5028272;28;20400;-73
2022/12/24 07:18:10;;;;;;;4.13;1.77;;;11.90;99.90;;;;;;5022685;28;20757;-73
2022/12/24 07:20:37;;;;;;;5.32;1.80;;;11.90;99.90;;;;;;5021062;28;20415;-73
2022/12/24 07:23:03;;;;;;;7.70;1.70;;;11.90;99.90;;;;;;5028824;28;20383;-72
2022/12/24 07:25:29;;;;;;;5.97;1.95;;;11.90;99.90;;;;;;5015669;28;20445;-72
2022/12/24 07:27:54;;;;;;;4.18;1.60;;;11.90;99.90;;;;;;5026342;28;20389;-72
2022/12/24 07:30:20;;;;;;;7.70;2.17;;;12.00;99.90;;;;;;5024121;28;20395;-72
2022/12/24 07:32:45;;;;;;;6.40;2.00;;;12.00;99.90;;;;;;5019411;28;20393;-72
2022/12/24 07:35:11;;;;;;;6.07;1.90;;;12.00;99.90;;;;;;5030404;28;20881;-72
2022/12/24 07:37:36;;;;;;;5.43;2.00;;;12.00;99.90;;;;;;5017936;28;20883;-72
2022/12/24 07:40:06;;;;;;;5.50;2.00;;;12.00;99.90;;;;;;5040592;28;20937;-72
2022/12/24 07:42:34;;;;;;;5.40;2.13;;;12.00;99.90;;;;;;5023148;28;20400;-72
2022/12/24 07:44:59;;;;;;;6.20;2.22;;;12.00;99.90;;;;;;5017451;28;20412;-73
2022/12/24 07:47:25;;;;;;;10.87;1.97;;;12.00;99.90;;;;;;5029187;28;20404;-72
2022/12/24 07:49:51;;;;;;;9.50;2.20;;;11.90;99.90;;;;;;5019392;28;20861;-73
2022/12/24 07:52:16;;;;;;;6.10;1.90;;;11.90;99.90;;;;;;5023112;28;20859;-73
2022/12/24 07:54:42;;;;;;;7.18;2.00;;;11.90;99.90;;;;;;5025648;28;21022;-73
2022/12/24 07:57:07;;;;;;;8.10;2.50;;;11.90;99.90;;;;;;5015937;28;20519;-72
2022/12/24 07:59:33;;;;;;;7.57;2.10;;;11.90;99.90;;;;;;5029018;28;21004;-73
2022/12/24 08:01:58;;;;;;;7.33;2.63;;;11.90;99.90;;;;;;5019948;28;20981;-72
2022/12/24 08:04:24;;;;;;;5.23;2.00;;;11.90;99.90;;;;;;5019813;28;20518;-74
2022/12/24 08:06:50;;;;;;;6.63;2.05;;;12.00;99.90;;;;;;5026869;28;20904;-73
2022/12/24 08:09:15;;;;;;;4.80;2.10;;;12.00;99.90;;;;;;5016216;28;20871;-72
2022/12/24 08:11:44;;;;;;;5.50;2.13;;;12.00;99.90;;;;;;5027610;28;20405;-73
2022/12/24 08:14:09;;;;;;;6.07;2.60;;;11.90;99.90;;;;;;5024132;28;20746;-73
2022/12/24 08:16:35;;;;;;;6.17;2.93;;;11.90;99.90;;;;;;5011793;28;20404;-76
2022/12/24 08:19:00;;;;;;;7.25;2.40;;;11.90;99.90;;;;;;5013592;28;20406;-74
2022/12/24 08:21:26;;;;;;;5.28;2.85;;;12.00;99.90;;;;;;5013173;28;20389;-74
2022/12/24 08:23:51;;;;;;;8.30;2.00;;;12.00;99.90;;;;;;5012568;28;20445;-73
2022/12/24 08:26:20;;;;;;;6.63;2.33;;;12.10;99.90;;;;;;5013249;28;20393;-74
2022/12/24 08:28:45;;;;;;;8.48;2.80;;;12.10;99.90;;;;;;5012909;28;20751;-73
2022/12/24 08:31:11;;;;;;;7.80;2.20;;;12.20;99.90;;;;;;5013126;28;20389;-73
2022/12/24 08:33:36;;;;;;;6.10;2.30;;;12.20;99.90;;;;;;5012173;28;20400;-73
2022/12/24 08:36:02;;;;;;;8.63;2.27;;;12.10;99.90;;;;;;5028264;28;20389;-72
2022/12/24 08:38:28;;;;;;;6.95;2.80;;;12.10;99.90;;;;;;5012365;28;20568;-73
2022/12/24 08:40:54;;;;;;;9.15;2.60;;;12.20;99.90;;;;;;5012741;28;20420;-73
2022/12/24 08:43:20;;;;;;;7.88;2.10;;;12.10;99.90;;;;;;5010343;28;20393;-74
2022/12/24 08:45:48;;;;;;;7.37;2.30;;;12.20;99.90;;;;;;5012571;28;20389;-73
2022/12/24 08:48:14;;;;;;;5.13;2.20;;;12.20;99.90;;;;;;5012453;28;20520;-73
2022/12/24 08:50:40;;;;;;;6.40;2.40;;;12.20;99.90;;;;;;5011062;28;20389;-74
2022/12/24 08:53:07;;;;;;;6.28;1.80;;;12.10;99.90;;;;;;5011692;28;20392;-74
2022/12/24 08:55:32;;;;;;;4.65;2.10;;;12.20;99.90;;;;;;5012888;28;20389;-72
2022/12/24 08:57:59;;;;;;;4.25;2.05;;;12.20;99.90;;;;;;5013406;28;20392;-73
2022/12/24 09:00:25;;;;;;;8.13;2.50;;;12.20;99.90;;;;;;5012517;28;20464;-73
2022/12/24 09:02:51;;;;;;;9.40;2.92;;;12.20;99.90;;;;;;5012368;28;20526;-72
2022/12/24 09:05:17;;;;;;;6.47;2.03;;;12.20;99.90;;;;;;5012321;28;20415;-72
2022/12/24 09:07:42;;;;;;;5.97;1.88;;;12.20;99.90;;;;;;5012307;28;20416;-73
2022/12/24 09:10:09;;;;;;;4.88;2.00;;;12.20;99.90;;;;;;5029418;28;20387;-73
2022/12/24 09:12:34;;;;;;;6.70;1.90;;;12.30;99.90;;;;;;5031314;28;21063;-74
2022/12/24 09:15:00;;;;;;;7.87;2.40;;;12.40;99.90;;;;;;5031176;28;20391;-74
2022/12/24 09:17:25;;;;;;;7.00;1.80;;;12.50;99.90;;;;;;5031821;28;20379;-73
2022/12/24 09:19:51;;;;;;;6.23;1.90;;;12.50;99.90;;;;;;5031674;28;20893;-74
2022/12/24 09:22:16;;;;;;;7.15;1.85;;;12.50;99.90;;;;;;5031796;28;20395;-74
2022/12/24 09:24:42;;;;;;;4.00;1.30;;;12.60;99.90;;;;;;5030846;28;20901;-74
2022/12/24 09:27:07;;;;;;;5.77;1.90;;;12.50;99.90;;;;;;5019877;28;20778;-73
2022/12/24 09:29:34;;;;;;;5.83;2.00;;;12.60;99.90;;;;;;5024767;28;20388;-73
2022/12/24 09:31:59;;;;;;;7.63;2.40;;;12.70;99.90;;;;;;5027018;28;20395;-74
2022/12/24 09:34:25;;;;;;;5.97;1.60;;;12.70;99.90;;;;;;5010947;28;20385;-74
2022/12/24 09:36:53;;;;;;;4.67;1.70;;;12.70;99.90;;;;;;5011721;28;20388;-74
2022/12/24 09:39:19;;;;;;;5.00;1.40;;;12.60;99.90;;;;;;5011761;28;20407;-73
2022/12/24 09:42:12;;;;;;;4.38;1.67;;;12.50;99.90;;;;;;5012613;28;20419;-74
2022/12/24 09:44:47;;;;;;;6.65;1.60;;;12.60;99.90;;;;;;5021899;28;20934;-73
2022/12/24 09:47:27;;;;;;;4.43;1.88;;;12.60;99.90;;;;;;5024928;28;20731;-73
2022/12/24 09:49:56;;;;;;;4.73;1.90;;;12.60;99.90;;;;;;5013986;28;20447;-74
2022/12/24 09:52:33;;;;;;;5.53;2.13;;;12.60;99.90;;;;;;5014702;28;20387;-74
2022/12/24 09:55:19;;;;;;;6.82;1.77;;;12.50;99.90;;;;;;5022380;28;20455;-74
2022/12/24 09:57:46;;;;;;;4.68;1.38;;;12.50;99.90;;;;;;5019030;28;20412;-74
2022/12/24 10:00:22;;;;;;;3.77;1.20;;;12.70;99.90;;;;;;5025782;28;20388;-74
2022/12/24 10:02:48;;;;;;;4.10;1.58;;;12.50;99.90;;;;;;5021591;28;20411;-73
2022/12/24 10:05:16;;;;;;;5.50;1.40;;;12.60;99.90;;;;;;5016806;28;20515;-72
2022/12/24 10:08:01;;;;;;;3.50;1.48;;;12.60;99.90;;;;;;5026365;28;20398;-73
2022/12/24 10:10:53;;;;;;;4.20;1.50;;;12.70;99.90;;;;;;5017262;28;20817;-74
2022/12/24 10:13:53;;;;;;;3.60;1.10;;;12.50;99.90;;;;;;5019762;28;20404;-74
2022/12/24 10:16:48;;;;;;;2.70;1.40;;;12.60;99.90;;;;;;5013123;28;20388;-74
2022/12/24 10:19:32;;;;;;;2.90;1.00;;;12.80;99.90;;;;;;5024001;28;20380;-75
2022/12/24 10:22:03;;;;;;;1.80;1.15;;;12.70;99.90;;;;;;5013923;28;20390;-74
2022/12/24 10:24:49;;;;;;;3.65;1.30;;;12.80;99.90;;;;;;5028167;28;20399;-74
2022/12/24 10:27:20;;;;;;;2.30;1.30;;;12.90;99.90;;;;;;5021829;28;20399;-75
2022/12/24 10:30:00;;;;;;;4.28;1.20;;;13.20;99.90;;;;;;5015499;28;20381;-75
2022/12/24 10:32:30;;;;;;;3.13;1.20;;;13.20;99.90;;;;;;5018465;28;20379;-75
2022/12/24 10:35:05;;;;;;;2.53;1.10;;;13.20;99.90;;;;;;5030127;28;20382;-75
2022/12/24 10:37:30;;;;;;;3.70;0.90;;;13.20;99.90;;;;;;5030423;28;20477;-74
2022/12/24 10:39:58;;;;;;;2.97;1.00;;;13.00;99.90;;;;;;5030705;28;20957;-74
2022/12/24 10:42:31;;;;;;;2.07;0.90;;;12.90;99.90;;;;;;5017069;28;20493;-74
2022/12/24 10:45:02;;;;;;;2.75;1.00;;;12.90;99.90;;;;;;5021926;28;20756;-75
2022/12/24 10:47:31;;;;;;;3.17;1.05;;;12.90;99.90;;;;;;5019809;28;20470;-74
2022/12/24 10:50:27;;;;;;;2.78;1.10;;;12.90;99.90;;;;;;5025477;28;20870;-74
2022/12/24 10:52:57;;;;;;;2.50;1.17;;;12.90;99.90;;;;;;5014865;28;20389;-74
2022/12/24 10:55:23;;;;;;;2.22;0.90;;;13.10;99.90;;;;;;5015755;28;20407;-72
2022/12/24 10:58:05;;;;;;;2.30;1.00;;;13.40;99.90;;;;;;5030280;28;20486;-73
2022/12/24 11:00:33;;;;;;;3.20;0.80;;;13.40;99.90;;;;;;5024891;28;20388;-73
2022/12/24 11:03:10;;;;;;;2.55;0.90;;;13.50;99.90;;;;;;5016797;28;20391;-74
2022/12/24 11:05:37;;;;;;;3.55;0.95;;;13.60;99.90;;;;;;5030214;28;20409;-74
2022/12/24 11:08:18;;;;;;;2.85;0.90;;;13.70;99.90;;;;;;5027101;28;20383;-73
2022/12/24 11:10:54;;;;;;;2.55;1.00;;;13.70;99.90;;;;;;5032624;28;20406;-74
2022/12/24 11:13:29;;;;;;;2.28;0.90;;;13.70;99.90;;;;;;5017229;28;20417;-73
2022/12/24 11:16:01;;;;;;;2.70;1.10;;;13.60;99.90;;;;;;5019530;28;20375;-73
2022/12/24 11:18:27;;;;;;;3.45;0.88;;;13.80;99.90;;;;;;5009974;28;20864;-72
2022/12/24 11:20:53;;;;;;;2.15;1.10;;;13.80;99.80;;;;;;5010511;28;20392;-74
2022/12/24 11:23:19;;;;;;;1.45;0.80;;;14.10;99.90;;;;;;5009437;28;20913;-74
2022/12/24 11:25:50;;;;;;;2.17;0.73;;;14.90;96.50;;;;;;5017123;28;20897;-74
2022/12/24 11:28:22;;;;;;;1.88;0.90;;;15.30;93.10;;;;;;5029946;28;20746;-74
2022/12/24 11:31:04;;;;;;;2.75;0.98;;;15.80;91.50;;;;;;5030153;28;20722;-72
2022/12/24 11:33:30;;;;;;;2.08;0.80;;;16.00;86.10;;;;;;5029011;28;20440;-74
2022/12/24 11:36:01;;;;;;;1.55;0.80;;;15.40;88.40;;;;;;5029845;28;20386;-75
2022/12/24 11:38:28;;;;;;;4.00;1.15;;;15.30;88.60;;;;;;5032332;28;20869;-74
2022/12/24 11:41:10;;;;;;;1.77;0.90;;;15.00;88.20;;;;;;5031750;28;20483;-72
2022/12/24 11:43:51;;;;;;;1.30;0.80;;;14.70;90.20;;;;;;5032635;28;20510;-72
2022/12/24 11:46:42;;;;;;;3.97;1.20;;;14.30;91.90;;;;;;5033447;28;20390;-73
2022/12/24 11:49:10;;;;;;;1.15;0.70;;;13.90;92.90;;;;;;5021429;28;20400;-72
2022/12/24 11:51:38;;;;;;;2.00;0.90;;;13.90;93.60;;;;;;5029576;28;20387;-72
2022/12/24 11:54:22;;;;;;;3.17;1.50;;;13.90;92.80;;;;;;5031252;28;20391;-73
2022/12/24 11:56:55;;;;;;;2.30;0.90;;;13.80;93.60;;;;;;5021403;28;20393;-74
2022/12/24 11:59:36;;;;;;;1.80;0.80;;;13.50;93.90;;;;;;5031787;28;20452;-74
2022/12/24 12:02:23;;;;;;;1.10;0.70;;;13.40;94.80;;;;;;5033046;28;20869;-73
2022/12/24 12:04:56;;;;;;;1.33;0.80;;;13.40;96.60;;;;;;5032553;28;21123;-73
2022/12/24 12:07:32;;;;;;;2.50;1.03;;;13.30;98.10;;;;;;5032892;28;20454;-73
2022/12/24 12:10:19;;;;;;;3.78;1.00;;;13.40;96.80;;;;;;5020279;28;20396;-73
2022/12/24 12:12:49;;;;;;;4.18;0.90;;;13.20;97.10;;;;;;5021323;28;20423;-74
2022/12/24 12:15:22;;;;;;;3.60;1.10;;;13.20;97.80;;;;;;5020516;28;20500;-74
2022/12/24 12:17:55;;;;;;;2.33;0.65;;;13.10;97.50;;;;;;5021537;28;20434;-73
2022/12/24 12:20:43;;;;;;;1.80;0.80;;;13.20;97.00;;;;;;5019756;28;20474;-73
2022/12/24 12:23:43;;;;;;;2.45;0.90;;;13.10;97.70;;;;;;5021219;28;20393;-74
2022/12/24 12:26:27;;;;;;;2.20;1.00;;;13.40;97.20;;;;;;5018536;28;20400;-73
2022/12/24 12:29:18;;;;;;;1.50;0.90;;;13.60;97.10;;;;;;5023957;28;20432;-73
2022/12/24 12:31:49;;;;;;;1.80;1.20;;;13.50;96.90;;;;;;5007435;28;20432;-74
2022/12/24 12:34:30;;;;;;;1.80;0.73;;;13.70;95.70;;;;;;5014768;28;20539;-73
2022/12/24 12:37:01;;;;;;;2.00;1.00;;;13.70;95.70;;;;;;5031089;28;20424;-74
2022/12/24 12:39:30;;;;;;;2.20;1.10;;;13.50;96.80;;;;;;5015155;28;20886;-74
2022/12/24 12:42:08;;;;;;;2.28;1.20;;;13.60;95.70;;;;;;5018614;28;21099;-74
2022/12/24 12:44:34;;;;;;;2.10;0.80;;;13.70;95.50;;;;;;5016731;28;20411;-74
2022/12/24 12:47:12;;;;;;;4.40;1.30;;;13.50;96.10;;;;;;5018382;28;20383;-74
2022/12/24 12:50:06;;;;;;;1.83;0.90;;;13.50;95.70;;;;;;5019395;28;20513;-74
2022/12/24 12:52:57;;;;;;;3.17;1.05;;;13.40;95.80;;;;;;5028085;28;20391;-74
2022/12/24 12:55:36;;;;;;;2.75;0.93;;;13.40;96.40;;;;;;5022885;28;20402;-73
2022/12/24 12:58:07;;;;;;;3.45;1.00;;;13.30;96.40;;;;;;5037457;28;20409;-74
2022/12/24 13:00:38;;;;;;;2.65;1.20;;;13.40;95.80;;;;;;5021488;28;20420;-74
2022/12/24 13:03:12;;;;;;;2.35;1.17;;;13.20;97.20;;;;;;5020005;28;20389;-73
2022/12/24 13:05:49;;;;;;;2.20;1.03;;;13.30;97.80;;;;;;5021170;28;20390;-73